sensor_id;sensor_type;location;lat;lon;timestamp;P1;durP1;ratioP1;P2;durP2;ratioP2
23113;SDS011;11726;50.122;8.832;2024-03-02T00:00:49;8.77;;;5.25;;
23113;SDS011;11726;50.122;8.832;2024-03-02T00:03:18;12.50;;;5.13;;
23113;SDS011;11726;50.122;8.832;2024-03-02T00:05:48;9.50;;;4.80;;
23113;SDS011;11726;50.122;8.832;2024-03-02T00:08:23;9.65;;;4.70;;
23113;SDS011;11726;50.122;8.832;2024-03-02T00:10:52;12.75;;;5.90;;
23113;SDS011;11726;50.122;8.832;2024-03-02T00:15:54;13.98;;;5.75;;
23113;SDS011;11726;50.122;8.832;2024-03-02T00:18:26;11.35;;;4.93;;
23113;SDS011;11726;50.122;8.832;2024-03-02T00:20:57;12.25;;;5.15;;
23113;SDS011;11726;50.122;8.832;2024-03-02T00:23:24;9.07;;;5.32;;
23113;SDS011;11726;50.122;8.832;2024-03-02T00:25:55;11.15;;;5.20;;
23113;SDS011;11726;50.122;8.832;2024-03-02T00:28:23;10.77;;;4.95;;
23113;SDS011;11726;50.122;8.832;2024-03-02T00:30:52;10.00;;;4.82;;
23113;SDS011;11726;50.122;8.832;2024-03-02T00:33:34;14.55;;;4.80;;
23113;SDS011;11726;50.122;8.832;2024-03-02T00:36:02;11.13;;;5.07;;
23113;SDS011;11726;50.122;8.832;2024-03-02T00:38:30;10.70;;;5.35;;
23113;SDS011;11726;50.122;8.832;2024-03-02T00:41:05;11.95;;;5.05;;
23113;SDS011;11726;50.122;8.832;2024-03-02T00:46:17;12.30;;;5.20;;
23113;SDS011;11726;50.122;8.832;2024-03-02T00:48:55;8.75;;;5.15;;
23113;SDS011;11726;50.122;8.832;2024-03-02T00:51:27;9.63;;;4.80;;
23113;SDS011;11726;50.122;8.832;2024-03-02T00:53:58;7.78;;;4.60;;
23113;SDS011;11726;50.122;8.832;2024-03-02T00:56:27;12.52;;;4.68;;
23113;SDS011;11726;50.122;8.832;2024-03-02T00:58:53;10.02;;;4.78;;
23113;SDS011;11726;50.122;8.832;2024-03-02T01:01:20;9.93;;;4.57;;
23113;SDS011;11726;50.122;8.832;2024-03-02T01:03:47;11.15;;;4.97;;
23113;SDS011;11726;50.122;8.832;2024-03-02T01:06:15;7.38;;;4.53;;
23113;SDS011;11726;50.122;8.832;2024-03-02T01:08:43;10.25;;;4.50;;
23113;SDS011;11726;50.122;8.832;2024-03-02T01:11:10;9.65;;;4.63;;
23113;SDS011;11726;50.122;8.832;2024-03-02T01:13:37;10.98;;;5.93;;
23113;SDS011;11726;50.122;8.832;2024-03-02T01:16:04;10.73;;;5.47;;
23113;SDS011;11726;50.122;8.832;2024-03-02T01:18:31;11.82;;;5.65;;
23113;SDS011;11726;50.122;8.832;2024-03-02T01:20:57;13.32;;;6.03;;
23113;SDS011;11726;50.122;8.832;2024-03-02T01:23:24;11.23;;;5.57;;
23113;SDS011;11726;50.122;8.832;2024-03-02T01:25:51;11.98;;;5.60;;
23113;SDS011;11726;50.122;8.832;2024-03-02T01:28:18;10.60;;;5.50;;
23113;SDS011;11726;50.122;8.832;2024-03-02T01:30:46;12.95;;;5.70;;
23113;SDS011;11726;50.122;8.832;2024-03-02T01:33:14;11.23;;;5.32;;
23113;SDS011;11726;50.122;8.832;2024-03-02T01:35:41;13.27;;;5.72;;
23113;SDS011;11726;50.122;8.832;2024-03-02T01:38:08;9.75;;;5.13;;
23113;SDS011;11726;50.122;8.832;2024-03-02T01:40:35;8.70;;;4.85;;
23113;SDS011;11726;50.122;8.832;2024-03-02T01:43:03;12.52;;;5.22;;
23113;SDS011;11726;50.122;8.832;2024-03-02T01:45:31;11.98;;;5.85;;
23113;SDS011;11726;50.122;8.832;2024-03-02T01:47:58;14.68;;;6.10;;
23113;SDS011;11726;50.122;8.832;2024-03-02T01:50:29;11.35;;;5.60;;
23113;SDS011;11726;50.122;8.832;2024-03-02T01:52:58;10.35;;;5.40;;
23113;SDS011;11726;50.122;8.832;2024-03-02T01:55:25;10.30;;;4.80;;
23113;SDS011;11726;50.122;8.832;2024-03-02T01:57:52;10.95;;;5.18;;
23113;SDS011;11726;50.122;8.832;2024-03-02T02:00:20;12.80;;;5.50;;
23113;SDS011;11726;50.122;8.832;2024-03-02T02:02:48;10.27;;;5.28;;
23113;SDS011;11726;50.122;8.832;2024-03-02T02:05:15;13.05;;;6.00;;
23113;SDS011;11726;50.122;8.832;2024-03-02T02:07:42;12.10;;;5.85;;
23113;SDS011;11726;50.122;8.832;2024-03-02T02:10:12;12.77;;;4.88;;
23113;SDS011;11726;50.122;8.832;2024-03-02T02:12:39;10.85;;;5.22;;
23113;SDS011;11726;50.122;8.832;2024-03-02T02:15:28;9.25;;;5.13;;
23113;SDS011;11726;50.122;8.832;2024-03-02T02:17:57;13.30;;;5.82;;
23113;SDS011;11726;50.122;8.832;2024-03-02T02:20:25;14.10;;;5.70;;
23113;SDS011;11726;50.122;8.832;2024-03-02T02:22:55;9.10;;;5.20;;
23113;SDS011;11726;50.122;8.832;2024-03-02T02:25:26;12.80;;;5.75;;
23113;SDS011;11726;50.122;8.832;2024-03-02T02:27:54;11.90;;;5.93;;
23113;SDS011;11726;50.122;8.832;2024-03-02T02:30:25;10.65;;;5.50;;
23113;SDS011;11726;50.122;8.832;2024-03-02T02:32:53;11.10;;;5.45;;
23113;SDS011;11726;50.122;8.832;2024-03-02T02:35:20;9.55;;;5.05;;
23113;SDS011;11726;50.122;8.832;2024-03-02T02:37:48;11.40;;;5.18;;
23113;SDS011;11726;50.122;8.832;2024-03-02T02:40:15;12.80;;;6.00;;
23113;SDS011;11726;50.122;8.832;2024-03-02T02:42:42;11.60;;;5.82;;
23113;SDS011;11726;50.122;8.832;2024-03-02T02:45:09;11.88;;;5.15;;
23113;SDS011;11726;50.122;8.832;2024-03-02T02:47:37;10.07;;;4.90;;
23113;SDS011;11726;50.122;8.832;2024-03-02T02:50:04;10.85;;;5.57;;
23113;SDS011;11726;50.122;8.832;2024-03-02T02:52:33;9.90;;;5.40;;
23113;SDS011;11726;50.122;8.832;2024-03-02T02:55:06;16.33;;;6.38;;
23113;SDS011;11726;50.122;8.832;2024-03-02T02:57:34;13.18;;;5.85;;
23113;SDS011;11726;50.122;8.832;2024-03-02T03:00:04;11.52;;;5.82;;
23113;SDS011;11726;50.122;8.832;2024-03-02T03:02:36;12.13;;;5.57;;
23113;SDS011;11726;50.122;8.832;2024-03-02T03:05:08;11.35;;;5.57;;
23113;SDS011;11726;50.122;8.832;2024-03-02T03:07:36;9.48;;;5.32;;
23113;SDS011;11726;50.122;8.832;2024-03-02T03:10:03;12.20;;;5.78;;
23113;SDS011;11726;50.122;8.832;2024-03-02T03:12:31;15.15;;;6.25;;
23113;SDS011;11726;50.122;8.832;2024-03-02T03:14:58;11.38;;;5.00;;
23113;SDS011;11726;50.122;8.832;2024-03-02T03:17:26;11.02;;;5.15;;
23113;SDS011;11726;50.122;8.832;2024-03-02T03:19:53;9.38;;;5.05;;
23113;SDS011;11726;50.122;8.832;2024-03-02T03:22:20;11.32;;;5.03;;
23113;SDS011;11726;50.122;8.832;2024-03-02T03:24:47;10.88;;;5.07;;
23113;SDS011;11726;50.122;8.832;2024-03-02T03:27:14;11.45;;;5.30;;
23113;SDS011;11726;50.122;8.832;2024-03-02T03:29:41;10.05;;;4.97;;
23113;SDS011;11726;50.122;8.832;2024-03-02T03:32:07;9.68;;;5.10;;
23113;SDS011;11726;50.122;8.832;2024-03-02T03:34:34;10.57;;;5.60;;
23113;SDS011;11726;50.122;8.832;2024-03-02T03:37:01;13.48;;;5.80;;
23113;SDS011;11726;50.122;8.832;2024-03-02T03:39:28;10.20;;;5.70;;
23113;SDS011;11726;50.122;8.832;2024-03-02T03:41:55;11.23;;;4.65;;
23113;SDS011;11726;50.122;8.832;2024-03-02T03:44:22;11.30;;;5.38;;
23113;SDS011;11726;50.122;8.832;2024-03-02T03:46:48;11.35;;;4.95;;
23113;SDS011;11726;50.122;8.832;2024-03-02T03:49:15;12.60;;;5.28;;
23113;SDS011;11726;50.122;8.832;2024-03-02T03:51:42;11.07;;;5.25;;
23113;SDS011;11726;50.122;8.832;2024-03-02T03:54:09;12.85;;;5.65;;
23113;SDS011;11726;50.122;8.832;2024-03-02T03:56:37;15.30;;;6.15;;
23113;SDS011;11726;50.122;8.832;2024-03-02T03:59:04;13.40;;;5.35;;
23113;SDS011;11726;50.122;8.832;2024-03-02T04:01:31;11.38;;;5.78;;
23113;SDS011;11726;50.122;8.832;2024-03-02T04:03:58;14.82;;;5.82;;
23113;SDS011;11726;50.122;8.832;2024-03-02T04:06:24;15.70;;;5.93;;
23113;SDS011;11726;50.122;8.832;2024-03-02T04:08:51;11.38;;;5.30;;
23113;SDS011;11726;50.122;8.832;2024-03-02T04:11:18;14.05;;;6.28;;
23113;SDS011;11726;50.122;8.832;2024-03-02T04:13:45;10.63;;;5.40;;
23113;SDS011;11726;50.122;8.832;2024-03-02T04:16:11;10.57;;;6.00;;
23113;SDS011;11726;50.122;8.832;2024-03-02T04:18:38;11.52;;;5.95;;
23113;SDS011;11726;50.122;8.832;2024-03-02T04:21:06;14.05;;;6.75;;
23113;SDS011;11726;50.122;8.832;2024-03-02T04:23:32;14.90;;;6.55;;
23113;SDS011;11726;50.122;8.832;2024-03-02T04:25:59;16.17;;;6.63;;
23113;SDS011;11726;50.122;8.832;2024-03-02T04:28:26;10.73;;;5.93;;
23113;SDS011;11726;50.122;8.832;2024-03-02T04:30:52;11.90;;;5.38;;
23113;SDS011;11726;50.122;8.832;2024-03-02T04:33:19;11.82;;;6.05;;
23113;SDS011;11726;50.122;8.832;2024-03-02T04:35:46;12.93;;;5.72;;
23113;SDS011;11726;50.122;8.832;2024-03-02T04:38:13;12.70;;;6.10;;
23113;SDS011;11726;50.122;8.832;2024-03-02T04:40:39;16.15;;;6.30;;
23113;SDS011;11726;50.122;8.832;2024-03-02T04:43:06;11.57;;;5.75;;
23113;SDS011;11726;50.122;8.832;2024-03-02T04:45:37;12.57;;;5.82;;
23113;SDS011;11726;50.122;8.832;2024-03-02T04:48:04;14.57;;;5.82;;
23113;SDS011;11726;50.122;8.832;2024-03-02T04:50:31;12.50;;;5.55;;
23113;SDS011;11726;50.122;8.832;2024-03-02T04:52:58;11.85;;;5.60;;
23113;SDS011;11726;50.122;8.832;2024-03-02T04:55:25;11.13;;;5.10;;
23113;SDS011;11726;50.122;8.832;2024-03-02T04:57:55;9.27;;;5.18;;
23113;SDS011;11726;50.122;8.832;2024-03-02T05:00:22;13.52;;;5.88;;
23113;SDS011;11726;50.122;8.832;2024-03-02T05:02:49;11.23;;;5.35;;
23113;SDS011;11726;50.122;8.832;2024-03-02T05:05:17;10.95;;;5.07;;
23113;SDS011;11726;50.122;8.832;2024-03-02T05:07:44;12.55;;;6.03;;
23113;SDS011;11726;50.122;8.832;2024-03-02T05:10:11;15.15;;;6.65;;
23113;SDS011;11726;50.122;8.832;2024-03-02T05:12:38;16.23;;;7.13;;
23113;SDS011;11726;50.122;8.832;2024-03-02T05:15:12;12.48;;;5.93;;
23113;SDS011;11726;50.122;8.832;2024-03-02T05:17:40;13.68;;;6.68;;
23113;SDS011;11726;50.122;8.832;2024-03-02T05:20:10;14.95;;;6.50;;
23113;SDS011;11726;50.122;8.832;2024-03-02T05:22:37;12.43;;;5.65;;
23113;SDS011;11726;50.122;8.832;2024-03-02T05:25:04;11.20;;;5.50;;
23113;SDS011;11726;50.122;8.832;2024-03-02T05:27:31;10.82;;;6.22;;
23113;SDS011;11726;50.122;8.832;2024-03-02T05:29:59;11.65;;;5.50;;
23113;SDS011;11726;50.122;8.832;2024-03-02T05:32:26;14.88;;;6.50;;
23113;SDS011;11726;50.122;8.832;2024-03-02T05:34:53;13.68;;;6.45;;
23113;SDS011;11726;50.122;8.832;2024-03-02T05:37:19;14.55;;;6.35;;
23113;SDS011;11726;50.122;8.832;2024-03-02T05:39:46;9.98;;;5.60;;
23113;SDS011;11726;50.122;8.832;2024-03-02T05:42:13;10.80;;;5.30;;
23113;SDS011;11726;50.122;8.832;2024-03-02T05:44:40;15.43;;;6.78;;
23113;SDS011;11726;50.122;8.832;2024-03-02T05:47:06;11.20;;;5.53;;
23113;SDS011;11726;50.122;8.832;2024-03-02T05:49:35;13.80;;;6.20;;
23113;SDS011;11726;50.122;8.832;2024-03-02T05:52:02;17.25;;;7.82;;
23113;SDS011;11726;50.122;8.832;2024-03-02T05:54:29;12.15;;;5.60;;
23113;SDS011;11726;50.122;8.832;2024-03-02T05:56:56;19.02;;;6.75;;
23113;SDS011;11726;50.122;8.832;2024-03-02T05:59:22;12.48;;;5.75;;
23113;SDS011;11726;50.122;8.832;2024-03-02T06:01:49;14.40;;;6.90;;
23113;SDS011;11726;50.122;8.832;2024-03-02T06:04:18;14.13;;;5.65;;
23113;SDS011;11726;50.122;8.832;2024-03-02T06:06:45;10.75;;;5.38;;
23113;SDS011;11726;50.122;8.832;2024-03-02T06:09:12;13.00;;;5.55;;
23113;SDS011;11726;50.122;8.832;2024-03-02T06:11:40;10.52;;;5.78;;
23113;SDS011;11726;50.122;8.832;2024-03-02T06:14:07;12.85;;;5.63;;
23113;SDS011;11726;50.122;8.832;2024-03-02T06:16:35;17.52;;;7.10;;
23113;SDS011;11726;50.122;8.832;2024-03-02T06:19:01;14.00;;;5.93;;
23113;SDS011;11726;50.122;8.832;2024-03-02T06:21:28;14.00;;;6.72;;
23113;SDS011;11726;50.122;8.832;2024-03-02T06:23:56;11.02;;;5.65;;
23113;SDS011;11726;50.122;8.832;2024-03-02T06:26:23;17.98;;;6.97;;
23113;SDS011;11726;50.122;8.832;2024-03-02T06:28:51;15.73;;;7.60;;
23113;SDS011;11726;50.122;8.832;2024-03-02T06:31:18;21.48;;;8.50;;
23113;SDS011;11726;50.122;8.832;2024-03-02T06:33:45;13.98;;;6.72;;
23113;SDS011;11726;50.122;8.832;2024-03-02T06:36:12;16.40;;;7.22;;
23113;SDS011;11726;50.122;8.832;2024-03-02T06:38:39;16.33;;;7.70;;
23113;SDS011;11726;50.122;8.832;2024-03-02T06:41:08;18.55;;;8.07;;
23113;SDS011;11726;50.122;8.832;2024-03-02T06:43:35;19.98;;;8.88;;
23113;SDS011;11726;50.122;8.832;2024-03-02T06:46:02;22.70;;;9.55;;
23113;SDS011;11726;50.122;8.832;2024-03-02T06:48:29;21.55;;;9.13;;
23113;SDS011;11726;50.122;8.832;2024-03-02T06:50:56;28.08;;;9.70;;
23113;SDS011;11726;50.122;8.832;2024-03-02T06:53:24;22.73;;;8.90;;
23113;SDS011;11726;50.122;8.832;2024-03-02T06:55:51;20.08;;;8.80;;
23113;SDS011;11726;50.122;8.832;2024-03-02T06:58:18;16.42;;;7.20;;
23113;SDS011;11726;50.122;8.832;2024-03-02T07:00:44;16.95;;;6.97;;
23113;SDS011;11726;50.122;8.832;2024-03-02T07:03:11;17.15;;;7.30;;
23113;SDS011;11726;50.122;8.832;2024-03-02T07:05:38;17.30;;;7.97;;
23113;SDS011;11726;50.122;8.832;2024-03-02T07:08:05;15.98;;;6.68;;
23113;SDS011;11726;50.122;8.832;2024-03-02T07:10:32;16.90;;;7.07;;
23113;SDS011;11726;50.122;8.832;2024-03-02T07:12:59;14.63;;;7.43;;
23113;SDS011;11726;50.122;8.832;2024-03-02T07:15:26;15.63;;;7.68;;
23113;SDS011;11726;50.122;8.832;2024-03-02T07:17:53;18.05;;;8.77;;
23113;SDS011;11726;50.122;8.832;2024-03-02T07:20:19;14.10;;;6.90;;
23113;SDS011;11726;50.122;8.832;2024-03-02T07:22:46;17.23;;;7.78;;
23113;SDS011;11726;50.122;8.832;2024-03-02T07:25:13;23.13;;;8.00;;
23113;SDS011;11726;50.122;8.832;2024-03-02T07:27:43;17.23;;;7.28;;
23113;SDS011;11726;50.122;8.832;2024-03-02T07:30:13;18.48;;;7.43;;
23113;SDS011;11726;50.122;8.832;2024-03-02T07:32:42;13.23;;;6.95;;
23113;SDS011;11726;50.122;8.832;2024-03-02T07:35:12;17.65;;;7.60;;
23113;SDS011;11726;50.122;8.832;2024-03-02T07:37:41;16.85;;;8.73;;
23113;SDS011;11726;50.122;8.832;2024-03-02T07:40:08;15.95;;;7.72;;
23113;SDS011;11726;50.122;8.832;2024-03-02T07:42:39;17.00;;;8.38;;
23113;SDS011;11726;50.122;8.832;2024-03-02T07:45:06;20.70;;;9.32;;
23113;SDS011;11726;50.122;8.832;2024-03-02T07:47:34;17.83;;;8.38;;
23113;SDS011;11726;50.122;8.832;2024-03-02T07:50:01;16.45;;;8.35;;
23113;SDS011;11726;50.122;8.832;2024-03-02T07:52:28;14.40;;;7.45;;
23113;SDS011;11726;50.122;8.832;2024-03-02T07:54:55;13.50;;;6.95;;
23113;SDS011;11726;50.122;8.832;2024-03-02T07:57:22;14.27;;;6.82;;
23113;SDS011;11726;50.122;8.832;2024-03-02T07:59:49;15.05;;;6.55;;
23113;SDS011;11726;50.122;8.832;2024-03-02T08:02:15;18.08;;;7.13;;
23113;SDS011;11726;50.122;8.832;2024-03-02T08:04:42;18.73;;;8.30;;
23113;SDS011;11726;50.122;8.832;2024-03-02T08:07:09;22.90;;;8.48;;
23113;SDS011;11726;50.122;8.832;2024-03-02T08:09:35;14.38;;;7.80;;
23113;SDS011;11726;50.122;8.832;2024-03-02T08:12:02;16.38;;;7.13;;
23113;SDS011;11726;50.122;8.832;2024-03-02T08:14:29;16.15;;;7.55;;
23113;SDS011;11726;50.122;8.832;2024-03-02T08:16:56;18.02;;;8.65;;
23113;SDS011;11726;50.122;8.832;2024-03-02T08:19:22;16.67;;;8.02;;
23113;SDS011;11726;50.122;8.832;2024-03-02T08:21:49;19.42;;;8.88;;
23113;SDS011;11726;50.122;8.832;2024-03-02T08:24:16;21.50;;;9.25;;
23113;SDS011;11726;50.122;8.832;2024-03-02T08:26:43;14.70;;;7.70;;
23113;SDS011;11726;50.122;8.832;2024-03-02T08:29:09;24.00;;;10.13;;
23113;SDS011;11726;50.122;8.832;2024-03-02T08:31:37;20.00;;;9.50;;
23113;SDS011;11726;50.122;8.832;2024-03-02T08:34:07;22.25;;;8.98;;
23113;SDS011;11726;50.122;8.832;2024-03-02T08:36:34;20.42;;;9.60;;
23113;SDS011;11726;50.122;8.832;2024-03-02T08:39:01;21.60;;;9.25;;
23113;SDS011;11726;50.122;8.832;2024-03-02T08:41:28;20.15;;;10.23;;
23113;SDS011;11726;50.122;8.832;2024-03-02T08:43:55;18.00;;;7.70;;
23113;SDS011;11726;50.122;8.832;2024-03-02T08:46:21;18.60;;;7.70;;
23113;SDS011;11726;50.122;8.832;2024-03-02T08:48:48;21.70;;;9.63;;
23113;SDS011;11726;50.122;8.832;2024-03-02T08:51:15;23.38;;;9.05;;
23113;SDS011;11726;50.122;8.832;2024-03-02T08:53:42;16.25;;;7.78;;
23113;SDS011;11726;50.122;8.832;2024-03-02T08:56:09;18.80;;;7.53;;
23113;SDS011;11726;50.122;8.832;2024-03-02T08:58:36;14.43;;;7.10;;
23113;SDS011;11726;50.122;8.832;2024-03-02T09:01:03;13.93;;;6.82;;
23113;SDS011;11726;50.122;8.832;2024-03-02T09:03:30;12.10;;;6.20;;
23113;SDS011;11726;50.122;8.832;2024-03-02T09:05:59;18.33;;;8.15;;
23113;SDS011;11726;50.122;8.832;2024-03-02T09:08:26;19.08;;;7.78;;
23113;SDS011;11726;50.122;8.832;2024-03-02T09:10:53;13.75;;;6.40;;
23113;SDS011;11726;50.122;8.832;2024-03-02T09:13:20;15.75;;;7.43;;
23113;SDS011;11726;50.122;8.832;2024-03-02T09:15:48;15.73;;;7.75;;
23113;SDS011;11726;50.122;8.832;2024-03-02T09:18:14;18.70;;;7.57;;
23113;SDS011;11726;50.122;8.832;2024-03-02T09:20:41;17.85;;;7.43;;
23113;SDS011;11726;50.122;8.832;2024-03-02T09:23:08;14.63;;;6.68;;
23113;SDS011;11726;50.122;8.832;2024-03-02T09:25:35;17.13;;;6.90;;
23113;SDS011;11726;50.122;8.832;2024-03-02T09:28:03;14.95;;;7.47;;
23113;SDS011;11726;50.122;8.832;2024-03-02T09:30:30;19.08;;;7.18;;
23113;SDS011;11726;50.122;8.832;2024-03-02T09:32:56;14.07;;;6.32;;
23113;SDS011;11726;50.122;8.832;2024-03-02T09:35:43;13.98;;;6.75;;
23113;SDS011;11726;50.122;8.832;2024-03-02T09:38:09;15.40;;;6.90;;
23113;SDS011;11726;50.122;8.832;2024-03-02T09:40:36;13.15;;;6.63;;
23113;SDS011;11726;50.122;8.832;2024-03-02T09:43:02;12.30;;;6.68;;
23113;SDS011;11726;50.122;8.832;2024-03-02T09:45:30;12.25;;;6.03;;
23113;SDS011;11726;50.122;8.832;2024-03-02T09:47:57;15.07;;;6.72;;
23113;SDS011;11726;50.122;8.832;2024-03-02T09:50:24;17.70;;;6.88;;
23113;SDS011;11726;50.122;8.832;2024-03-02T09:52:50;13.82;;;7.28;;
23113;SDS011;11726;50.122;8.832;2024-03-02T09:55:18;15.45;;;6.70;;
23113;SDS011;11726;50.122;8.832;2024-03-02T09:57:46;10.60;;;5.90;;
23113;SDS011;11726;50.122;8.832;2024-03-02T10:00:15;16.15;;;6.63;;
23113;SDS011;11726;50.122;8.832;2024-03-02T10:02:42;11.98;;;6.57;;
23113;SDS011;11726;50.122;8.832;2024-03-02T10:05:09;17.23;;;7.10;;
23113;SDS011;11726;50.122;8.832;2024-03-02T10:07:36;15.40;;;6.88;;
23113;SDS011;11726;50.122;8.832;2024-03-02T10:10:12;15.75;;;6.68;;
23113;SDS011;11726;50.122;8.832;2024-03-02T10:12:40;15.10;;;7.00;;
23113;SDS011;11726;50.122;8.832;2024-03-02T10:15:07;12.25;;;6.32;;
23113;SDS011;11726;50.122;8.832;2024-03-02T10:17:35;12.35;;;6.03;;
23113;SDS011;11726;50.122;8.832;2024-03-02T10:20:21;13.55;;;5.97;;
23113;SDS011;11726;50.122;8.832;2024-03-02T10:22:49;16.52;;;6.95;;
23113;SDS011;11726;50.122;8.832;2024-03-02T10:25:32;12.80;;;6.47;;
23113;SDS011;11726;50.122;8.832;2024-03-02T10:28:02;12.63;;;5.95;;
23113;SDS011;11726;50.122;8.832;2024-03-02T10:30:31;12.60;;;6.00;;
23113;SDS011;11726;50.122;8.832;2024-03-02T10:33:02;16.25;;;6.75;;
23113;SDS011;11726;50.122;8.832;2024-03-02T10:35:29;15.93;;;7.03;;
23113;SDS011;11726;50.122;8.832;2024-03-02T10:37:58;12.98;;;6.57;;
23113;SDS011;11726;50.122;8.832;2024-03-02T10:40:26;13.00;;;5.53;;
23113;SDS011;11726;50.122;8.832;2024-03-02T10:42:53;14.70;;;5.93;;
23113;SDS011;11726;50.122;8.832;2024-03-02T10:45:21;15.43;;;6.72;;
23113;SDS011;11726;50.122;8.832;2024-03-02T10:47:49;13.70;;;6.57;;
23113;SDS011;11726;50.122;8.832;2024-03-02T10:50:17;11.63;;;5.93;;
23113;SDS011;11726;50.122;8.832;2024-03-02T10:52:43;9.32;;;5.38;;
23113;SDS011;11726;50.122;8.832;2024-03-02T10:55:10;10.85;;;5.88;;
23113;SDS011;11726;50.122;8.832;2024-03-02T10:57:42;11.38;;;5.97;;
23113;SDS011;11726;50.122;8.832;2024-03-02T11:00:19;9.55;;;5.28;;
23113;SDS011;11726;50.122;8.832;2024-03-02T11:02:56;9.65;;;5.28;;
23113;SDS011;11726;50.122;8.832;2024-03-02T11:08:01;10.60;;;4.90;;
23113;SDS011;11726;50.122;8.832;2024-03-02T11:10:37;9.15;;;4.72;;
23113;SDS011;11726;50.122;8.832;2024-03-02T11:13:09;9.98;;;4.32;;
23113;SDS011;11726;50.122;8.832;2024-03-02T11:15:37;10.40;;;4.70;;
23113;SDS011;11726;50.122;8.832;2024-03-02T11:18:09;9.90;;;4.68;;
23113;SDS011;11726;50.122;8.832;2024-03-02T11:20:38;7.63;;;4.32;;
23113;SDS011;11726;50.122;8.832;2024-03-02T11:23:06;8.57;;;4.40;;
23113;SDS011;11726;50.122;8.832;2024-03-02T11:25:34;8.35;;;4.22;;
23113;SDS011;11726;50.122;8.832;2024-03-02T11:28:02;10.52;;;3.65;;
23113;SDS011;11726;50.122;8.832;2024-03-02T11:33:04;8.88;;;4.53;;
23113;SDS011;11726;50.122;8.832;2024-03-02T11:35:35;8.20;;;3.38;;
23113;SDS011;11726;50.122;8.832;2024-03-02T11:38:15;7.70;;;3.70;;
23113;SDS011;11726;50.122;8.832;2024-03-02T11:40:42;5.55;;;3.17;;
23113;SDS011;11726;50.122;8.832;2024-03-02T11:43:09;6.65;;;3.38;;
23113;SDS011;11726;50.122;8.832;2024-03-02T11:45:41;5.72;;;3.13;;
23113;SDS011;11726;50.122;8.832;2024-03-02T11:48:14;6.47;;;2.97;;
23113;SDS011;11726;50.122;8.832;2024-03-02T11:50:42;5.60;;;3.17;;
23113;SDS011;11726;50.122;8.832;2024-03-02T11:53:13;6.85;;;3.22;;
23113;SDS011;11726;50.122;8.832;2024-03-02T11:55:41;6.97;;;2.78;;
23113;SDS011;11726;50.122;8.832;2024-03-02T11:58:12;3.97;;;2.60;;
23113;SDS011;11726;50.122;8.832;2024-03-02T12:00:39;6.20;;;3.00;;
23113;SDS011;11726;50.122;8.832;2024-03-02T12:03:07;4.63;;;2.78;;
23113;SDS011;11726;50.122;8.832;2024-03-02T12:05:35;3.40;;;2.03;;
23113;SDS011;11726;50.122;8.832;2024-03-02T12:08:03;3.67;;;2.15;;
23113;SDS011;11726;50.122;8.832;2024-03-02T12:10:31;4.03;;;2.28;;
23113;SDS011;11726;50.122;8.832;2024-03-02T12:13:00;6.28;;;2.00;;
23113;SDS011;11726;50.122;8.832;2024-03-02T12:15:29;2.95;;;2.20;;
23113;SDS011;11726;50.122;8.832;2024-03-02T12:17:58;4.00;;;2.25;;
23113;SDS011;11726;50.122;8.832;2024-03-02T12:20:26;5.70;;;2.83;;
23113;SDS011;11726;50.122;8.832;2024-03-02T12:22:57;4.65;;;2.70;;
23113;SDS011;11726;50.122;8.832;2024-03-02T12:25:25;6.93;;;3.25;;
23113;SDS011;11726;50.122;8.832;2024-03-02T12:27:56;4.45;;;2.67;;
23113;SDS011;11726;50.122;8.832;2024-03-02T12:30:24;4.43;;;2.80;;
23113;SDS011;11726;50.122;8.832;2024-03-02T12:32:55;5.47;;;2.63;;
23113;SDS011;11726;50.122;8.832;2024-03-02T12:35:21;4.85;;;2.42;;
23113;SDS011;11726;50.122;8.832;2024-03-02T12:37:51;3.83;;;2.08;;
23113;SDS011;11726;50.122;8.832;2024-03-02T12:40:19;4.82;;;2.25;;
23113;SDS011;11726;50.122;8.832;2024-03-02T12:42:46;5.00;;;2.42;;
23113;SDS011;11726;50.122;8.832;2024-03-02T12:45:13;5.35;;;2.35;;
23113;SDS011;11726;50.122;8.832;2024-03-02T12:47:40;4.43;;;2.13;;
23113;SDS011;11726;50.122;8.832;2024-03-02T12:50:08;3.50;;;2.22;;
23113;SDS011;11726;50.122;8.832;2024-03-02T12:52:36;4.60;;;2.30;;
23113;SDS011;11726;50.122;8.832;2024-03-02T12:55:06;3.20;;;2.13;;
23113;SDS011;11726;50.122;8.832;2024-03-02T12:57:33;4.50;;;2.25;;
23113;SDS011;11726;50.122;8.832;2024-03-02T13:00:04;4.00;;;2.10;;
23113;SDS011;11726;50.122;8.832;2024-03-02T13:02:42;7.82;;;3.58;;
23113;SDS011;11726;50.122;8.832;2024-03-02T13:05:09;3.17;;;1.90;;
23113;SDS011;11726;50.122;8.832;2024-03-02T13:07:40;2.38;;;1.42;;
23113;SDS011;11726;50.122;8.832;2024-03-02T13:10:11;5.57;;;2.97;;
23113;SDS011;11726;50.122;8.832;2024-03-02T13:12:39;3.65;;;2.25;;
23113;SDS011;11726;50.122;8.832;2024-03-02T13:15:06;1.90;;;1.50;;
23113;SDS011;11726;50.122;8.832;2024-03-02T13:17:34;3.47;;;1.92;;
23113;SDS011;11726;50.122;8.832;2024-03-02T13:20:04;2.83;;;1.60;;
23113;SDS011;11726;50.122;8.832;2024-03-02T13:22:36;6.25;;;1.42;;
23113;SDS011;11726;50.122;8.832;2024-03-02T13:25:03;2.55;;;1.58;;
23113;SDS011;11726;50.122;8.832;2024-03-02T13:27:31;2.78;;;1.25;;
23113;SDS011;11726;50.122;8.832;2024-03-02T13:29:59;2.67;;;1.30;;
23113;SDS011;11726;50.122;8.832;2024-03-02T13:32:25;2.00;;;1.02;;
23113;SDS011;11726;50.122;8.832;2024-03-02T13:34:52;1.17;;;1.00;;
23113;SDS011;11726;50.122;8.832;2024-03-02T13:37:20;1.98;;;1.10;;
23113;SDS011;11726;50.122;8.832;2024-03-02T13:39:47;3.47;;;1.13;;
23113;SDS011;11726;50.122;8.832;2024-03-02T13:42:14;1.77;;;1.10;;
23113;SDS011;11726;50.122;8.832;2024-03-02T13:44:44;2.45;;;1.15;;
23113;SDS011;11726;50.122;8.832;2024-03-02T13:47:13;1.75;;;0.75;;
23113;SDS011;11726;50.122;8.832;2024-03-02T13:49:40;1.65;;;1.00;;
23113;SDS011;11726;50.122;8.832;2024-03-02T13:52:10;1.48;;;1.10;;
23113;SDS011;11726;50.122;8.832;2024-03-02T13:54:39;2.28;;;1.02;;
23113;SDS011;11726;50.122;8.832;2024-03-02T13:57:08;1.30;;;0.80;;
23113;SDS011;11726;50.122;8.832;2024-03-02T13:59:35;0.90;;;0.60;;
23113;SDS011;11726;50.122;8.832;2024-03-02T14:02:04;1.10;;;0.80;;
23113;SDS011;11726;50.122;8.832;2024-03-02T14:04:32;0.60;;;0.45;;
23113;SDS011;11726;50.122;8.832;2024-03-02T14:07:00;0.65;;;0.50;;
23113;SDS011;11726;50.122;8.832;2024-03-02T14:09:27;1.38;;;0.63;;
23113;SDS011;11726;50.122;8.832;2024-03-02T14:11:54;0.80;;;0.65;;
23113;SDS011;11726;50.122;8.832;2024-03-02T14:14:22;0.60;;;0.40;;
23113;SDS011;11726;50.122;8.832;2024-03-02T14:16:49;1.58;;;0.90;;
23113;SDS011;11726;50.122;8.832;2024-03-02T14:19:16;0.90;;;0.80;;
23113;SDS011;11726;50.122;8.832;2024-03-02T14:21:43;0.98;;;0.70;;
23113;SDS011;11726;50.122;8.832;2024-03-02T14:24:09;0.82;;;0.65;;
23113;SDS011;11726;50.122;8.832;2024-03-02T14:26:36;2.60;;;1.00;;
23113;SDS011;11726;50.122;8.832;2024-03-02T14:29:03;1.92;;;1.00;;
23113;SDS011;11726;50.122;8.832;2024-03-02T14:31:31;1.63;;;0.90;;
23113;SDS011;11726;50.122;8.832;2024-03-02T14:33:58;1.58;;;0.90;;
23113;SDS011;11726;50.122;8.832;2024-03-02T14:36:26;1.77;;;0.90;;
23113;SDS011;11726;50.122;8.832;2024-03-02T14:38:54;1.15;;;0.77;;
23113;SDS011;11726;50.122;8.832;2024-03-02T14:41:21;2.03;;;0.82;;
23113;SDS011;11726;50.122;8.832;2024-03-02T14:43:50;0.80;;;0.70;;
23113;SDS011;11726;50.122;8.832;2024-03-02T14:46:17;0.70;;;0.60;;
23113;SDS011;11726;50.122;8.832;2024-03-02T14:48:44;4.60;;;0.70;;
23113;SDS011;11726;50.122;8.832;2024-03-02T14:51:12;0.52;;;0.40;;
23113;SDS011;11726;50.122;8.832;2024-03-02T14:53:39;1.08;;;0.80;;